createdAt,value
2023-11-12T00:00:08.820Z,80.01
2023-11-12T00:02:35.617Z,80.10
2023-11-12T00:05:02.400Z,79.72
2023-11-12T00:07:29.388Z,79.80
2023-11-12T00:09:56.127Z,79.70
2023-11-12T00:12:23.713Z,79.67
2023-11-12T00:14:51.212Z,79.63
2023-11-12T00:17:18.388Z,79.95
2023-11-12T00:19:45.250Z,79.92
2023-11-12T00:22:12.886Z,79.68
2023-11-12T00:24:40.343Z,79.74
2023-11-12T00:27:07.092Z,79.99
2023-11-12T00:29:34.477Z,79.99
2023-11-12T00:32:01.614Z,80.06
2023-11-12T00:34:28.376Z,80.13
2023-11-12T00:36:56.339Z,80.42
2023-11-12T00:39:23.024Z,80.09
2023-11-12T00:41:50.132Z,79.95
2023-11-12T00:44:18.260Z,79.85
2023-11-12T00:46:45.174Z,79.92
2023-11-12T00:49:11.916Z,79.81
2023-11-12T00:51:38.727Z,79.98
2023-11-12T00:54:05.649Z,79.96
2023-11-12T00:56:32.692Z,80.02
2023-11-12T00:58:59.820Z,80.33
2023-11-12T01:01:27.053Z,80.29
2023-11-12T01:03:56.449Z,80.54
2023-11-12T01:06:23.429Z,80.77
2023-11-12T01:08:50.412Z,80.57
2023-11-12T01:11:17.233Z,80.41
2023-11-12T01:13:44.349Z,80.43
2023-11-12T01:16:11.308Z,80.49
2023-11-12T01:18:40.989Z,80.25
2023-11-12T01:21:08.095Z,80.28
2023-11-12T01:23:35.348Z,80.26
2023-11-12T01:26:02.394Z,80.24
2023-11-12T01:28:34.801Z,80.44
2023-11-12T01:31:02.808Z,80.36
2023-11-12T01:33:30.202Z,80.10
2023-11-12T01:35:57.421Z,80.11
2023-11-12T01:38:24.375Z,80.26
2023-11-12T01:40:51.448Z,80.24
2023-11-12T01:43:19.906Z,80.33
2023-11-12T01:45:46.641Z,80.31
2023-11-12T01:48:14.607Z,80.18
2023-11-12T01:50:43.263Z,79.78
2023-11-12T01:53:13.822Z,79.61
2023-11-12T01:55:41.500Z,79.64
2023-11-12T01:58:12.229Z,79.96
2023-11-12T02:00:40.371Z,79.75
2023-11-12T02:03:09.678Z,79.73
2023-11-12T02:05:36.717Z,79.98
2023-11-12T02:08:06.658Z,80.21
2023-11-12T02:10:36.208Z,80.49
2023-11-12T02:13:07.512Z,80.43
2023-11-12T02:15:34.924Z,80.57
2023-11-12T02:18:01.800Z,80.29
2023-11-12T02:20:28.525Z,80.38
2023-11-12T02:22:55.356Z,80.37
2023-11-12T02:25:22.296Z,80.34
2023-11-12T02:27:49.216Z,80.20
2023-11-12T02:30:19.419Z,80.20
2023-11-12T02:32:46.296Z,80.05
2023-11-12T02:35:13.766Z,79.85
2023-11-12T02:37:40.708Z,79.88
2023-11-12T02:40:08.652Z,79.91
2023-11-12T02:42:37.093Z,80.06
2023-11-12T02:45:05.590Z,80.25
2023-11-12T02:47:32.832Z,80.20
2023-11-12T02:50:06.158Z,80.22
2023-11-12T02:52:33.737Z,80.48
2023-11-12T02:55:00.984Z,80.35
2023-11-12T02:57:28.188Z,80.57
2023-11-12T02:59:55.192Z,80.31
2023-11-12T03:02:22.792Z,80.43
2023-11-12T03:04:51.288Z,80.49
2023-11-12T03:07:20.921Z,80.55
2023-11-12T03:09:48.266Z,80.44
2023-11-12T03:12:15.921Z,80.81
2023-11-12T03:14:43.838Z,80.90
2023-11-12T03:17:10.672Z,81.03
2023-11-12T03:19:38.291Z,80.93
2023-11-12T03:22:05.394Z,81.16
2023-11-12T03:24:32.553Z,80.81
2023-11-12T03:26:59.542Z,80.69
2023-11-12T03:29:26.251Z,80.86
2023-11-12T03:31:54.656Z,80.91
2023-11-12T03:34:22.672Z,80.73
2023-11-12T03:36:49.761Z,80.82
2023-11-12T03:39:17.951Z,80.87
2023-11-12T03:41:44.834Z,81.29
2023-11-12T03:44:11.618Z,81.25
2023-11-12T03:46:38.500Z,80.93
2023-11-12T03:49:05.363Z,81.16
2023-11-12T03:51:35.760Z,81.26
2023-11-12T03:54:02.984Z,81.41
2023-11-12T03:56:30.540Z,81.28
2023-11-12T03:58:57.757Z,81.22
2023-11-12T04:01:24.888Z,81.65
2023-11-12T04:03:52.338Z,81.92
2023-11-12T04:06:20.326Z,82.07
2023-11-12T04:08:47.234Z,82.30
2023-11-12T04:11:14.363Z,82.64
2023-11-12T04:13:41.181Z,82.59
2023-11-12T04:16:09.211Z,82.67
2023-11-12T04:18:36.735Z,82.38
2023-11-12T04:21:06.235Z,83.03
2023-11-12T04:23:33.155Z,82.84
2023-11-12T04:25:59.977Z,82.82
2023-11-12T04:28:27.678Z,82.71
2023-11-12T04:30:55.589Z,82.75
2023-11-12T04:33:22.451Z,82.68
2023-11-12T04:35:50.583Z,82.50
2023-11-12T04:38:18.279Z,82.67
2023-11-12T04:40:47.626Z,82.79
2023-11-12T04:43:16.311Z,82.77
2023-11-12T04:45:43.457Z,82.82
2023-11-12T04:48:11.849Z,82.82
2023-11-12T04:50:39.262Z,82.82
2023-11-12T04:53:06.804Z,83.01
2023-11-12T04:55:34.645Z,83.17
2023-11-12T04:58:08.035Z,83.28
2023-11-12T05:00:34.818Z,83.48
2023-11-12T05:03:05.509Z,83.50
2023-11-12T05:05:32.638Z,83.40
2023-11-12T05:07:59.526Z,83.47
2023-11-12T05:10:44.116Z,83.27
2023-11-12T05:13:14.007Z,83.29
2023-11-12T05:15:41.552Z,83.38
2023-11-12T05:18:08.835Z,83.31
2023-11-12T05:20:35.724Z,83.25
2023-11-12T05:23:02.511Z,83.56
2023-11-12T05:25:30.234Z,83.38
2023-11-12T05:27:56.971Z,83.63
2023-11-12T05:30:23.853Z,83.64
2023-11-12T05:32:51.476Z,83.69
2023-11-12T05:35:19.703Z,83.59
2023-11-12T05:37:48.042Z,83.42
2023-11-12T05:40:15.128Z,83.58
2023-11-12T05:42:42.750Z,83.53
2023-11-12T05:45:10.436Z,83.80
2023-11-12T05:47:37.316Z,83.83
2023-11-12T05:50:04.482Z,83.85
2023-11-12T05:52:31.215Z,83.72
2023-11-12T05:54:58.003Z,83.66
2023-11-12T05:57:24.850Z,83.75
2023-11-12T05:59:51.592Z,83.47
2023-11-12T06:02:18.307Z,83.12
2023-11-12T06:04:45.105Z,82.99
2023-11-12T06:07:12.885Z,83.28
2023-11-12T06:09:39.692Z,83.36
2023-11-12T06:12:08.384Z,83.55
2023-11-12T06:14:37.150Z,83.79
2023-11-12T06:17:06.885Z,83.82
2023-11-12T06:19:33.689Z,84.17
2023-11-12T06:22:01.743Z,83.55
2023-11-12T06:24:29.219Z,83.53
2023-11-12T06:26:56.124Z,83.93
2023-11-12T06:29:24.378Z,83.82
2023-11-12T06:31:51.802Z,83.70
2023-11-12T06:34:19.458Z,83.65
2023-11-12T06:36:46.380Z,83.46
2023-11-12T06:39:14.129Z,83.51
2023-11-12T06:41:41.797Z,83.37
2023-11-12T06:44:13.081Z,83.11
2023-11-12T06:46:46.589Z,83.02
2023-11-12T06:49:14.451Z,82.67
2023-11-12T06:51:41.255Z,82.08
2023-11-12T06:54:09.534Z,82.20
2023-11-12T06:56:36.282Z,82.02
2023-11-12T06:59:03.477Z,81.92
2023-11-12T07:01:30.428Z,81.55
2023-11-12T07:03:57.712Z,81.44
2023-11-12T07:06:24.484Z,80.88
2023-11-12T07:08:51.198Z,80.88
2023-11-12T07:11:17.905Z,80.70
2023-11-12T07:13:44.697Z,80.57
2023-11-12T07:16:17.047Z,80.30
2023-11-12T07:21:25.328Z,79.90
2023-11-12T07:23:52.239Z,79.21
2023-11-12T07:26:19.014Z,78.82
2023-11-12T07:28:46.132Z,78.89
2023-11-12T07:31:14.206Z,78.15
2023-11-12T07:33:40.939Z,77.99
2023-11-12T07:36:08.045Z,78.39
2023-11-12T07:38:35.873Z,77.99
2023-11-12T07:41:03.662Z,77.30
2023-11-12T07:43:30.383Z,77.79
2023-11-12T07:45:57.582Z,78.18
2023-11-12T07:48:24.366Z,78.06
2023-11-12T07:50:51.386Z,77.33
2023-11-12T07:53:18.152Z,77.46
2023-11-12T07:55:44.991Z,77.10
2023-11-12T07:58:11.862Z,77.32
2023-11-12T08:00:38.681Z,77.24
2023-11-12T08:03:05.508Z,77.59
2023-11-12T08:05:32.433Z,77.63
2023-11-12T08:07:59.213Z,77.56
2023-11-12T08:10:25.908Z,77.64
2023-11-12T08:12:52.798Z,77.55
2023-11-12T08:15:19.503Z,77.79
2023-11-12T08:17:47.982Z,77.80
2023-11-12T08:20:15.999Z,77.94
2023-11-12T08:22:43.974Z,77.58
2023-11-12T08:25:11.082Z,77.73
2023-11-12T08:27:38.813Z,77.57
2023-11-12T08:30:06.281Z,77.84
2023-11-12T08:32:35.635Z,78.06
2023-11-12T08:35:02.663Z,78.60
2023-11-12T08:37:29.529Z,78.84
2023-11-12T08:39:56.436Z,78.77
2023-11-12T08:42:24.683Z,78.93
2023-11-12T08:44:53.591Z,79.04
2023-11-12T08:47:21.293Z,79.11
2023-11-12T08:49:48.278Z,78.87
2023-11-12T08:52:15.439Z,78.82
2023-11-12T08:54:42.737Z,78.55
2023-11-12T08:57:12.743Z,78.74
2023-11-12T08:59:40.349Z,78.37
2023-11-12T09:02:07.194Z,78.25
2023-11-12T09:04:37.296Z,78.11
2023-11-12T09:07:04.537Z,78.34
2023-11-12T09:09:33.610Z,77.63
2023-11-12T09:12:00.380Z,76.92
2023-11-12T09:14:27.197Z,74.48
2023-11-12T09:16:54.271Z,73.59
2023-11-12T09:19:21.087Z,72.33
2023-11-12T09:21:47.907Z,71.08
2023-11-12T09:24:14.720Z,70.37
2023-11-12T09:26:41.525Z,70.40
2023-11-12T09:29:09.917Z,70.32
2023-11-12T09:31:36.673Z,69.81
2023-11-12T09:34:03.671Z,69.34
2023-11-12T09:36:30.587Z,68.78
2023-11-12T09:38:57.382Z,69.06
2023-11-12T09:41:24.751Z,69.44
2023-11-12T09:43:54.685Z,69.42
2023-11-12T09:46:23.637Z,70.22
2023-11-12T09:48:52.642Z,67.53
2023-11-12T09:51:20.817Z,64.92
2023-11-12T09:53:50.990Z,63.75
2023-11-12T09:56:17.945Z,63.68
2023-11-12T09:58:46.269Z,63.08
2023-11-12T10:01:14.252Z,62.87
2023-11-12T10:03:47.212Z,62.41
2023-11-12T10:06:14.600Z,62.85
2023-11-12T10:08:41.921Z,63.34
2023-11-12T10:11:19.109Z,61.13
2023-11-12T10:13:47.878Z,58.47
2023-11-12T10:16:29.629Z,56.50
2023-11-12T10:19:13.980Z,56.60
2023-11-12T10:21:58.037Z,55.45
2023-11-12T10:24:29.850Z,56.10
2023-11-12T10:27:01.085Z,55.87
2023-11-12T10:29:28.220Z,56.42
2023-11-12T10:31:55.297Z,56.35
2023-11-12T10:34:24.306Z,56.70
2023-11-12T10:37:20.029Z,57.36
2023-11-12T10:39:47.564Z,57.51
2023-11-12T10:42:14.302Z,57.04
2023-11-12T10:44:41.597Z,56.27
2023-11-12T10:47:12.082Z,54.98
2023-11-12T10:49:41.343Z,53.75
2023-11-12T10:52:09.355Z,51.41
2023-11-12T10:54:37.652Z,47.60
2023-11-12T10:57:05.493Z,46.39
2023-11-12T10:59:35.845Z,46.55
2023-11-12T11:02:03.782Z,45.55
2023-11-12T11:04:34.303Z,44.74
2023-11-12T11:07:01.496Z,42.69
2023-11-12T11:09:29.192Z,41.62
2023-11-12T11:11:56.835Z,41.61
2023-11-12T11:14:33.243Z,41.14
2023-11-12T11:17:00.444Z,41.85
2023-11-12T11:19:45.343Z,42.56
2023-11-12T11:22:26.994Z,42.83
2023-11-12T11:24:55.578Z,43.54
2023-11-12T11:27:26.803Z,43.82
2023-11-12T11:30:13.709Z,44.03
2023-11-12T11:32:55.071Z,44.66
2023-11-12T11:35:24.925Z,46.05
2023-11-12T11:38:13.623Z,46.95
2023-11-12T11:40:48.451Z,48.50
2023-11-12T11:43:24.131Z,49.20
2023-11-12T11:46:11.331Z,50.40
2023-11-12T11:48:44.549Z,51.05
2023-11-12T11:51:34.465Z,51.87
2023-11-12T11:54:05.477Z,52.77
2023-11-12T11:56:32.992Z,53.64
2023-11-12T11:59:00.134Z,54.15
2023-11-12T12:01:26.925Z,54.55
2023-11-12T12:04:06.651Z,55.14
2023-11-12T12:06:34.153Z,55.97
2023-11-12T12:09:01.087Z,56.37
2023-11-12T12:11:28.001Z,56.40
2023-11-12T12:13:57.288Z,56.03
2023-11-12T12:16:32.104Z,56.07
2023-11-12T12:19:00.020Z,56.16
2023-11-12T12:21:26.897Z,56.25
2023-11-12T12:23:54.131Z,56.36
2023-11-12T12:26:25.350Z,56.82
2023-11-12T12:28:52.992Z,56.68
2023-11-12T12:31:20.760Z,56.32
2023-11-12T12:34:08.744Z,56.61
2023-11-12T12:36:36.513Z,57.21
2023-11-12T12:39:11.648Z,57.30
2023-11-12T12:41:38.560Z,57.00
2023-11-12T12:44:05.342Z,56.68
2023-11-12T12:46:52.353Z,56.46
2023-11-12T12:49:33.072Z,56.59
2023-11-12T12:52:03.115Z,56.38
2023-11-12T12:54:31.162Z,56.26
2023-11-12T12:56:59.999Z,56.21
2023-11-12T12:59:35.562Z,56.69
2023-11-12T13:02:03.283Z,56.84
2023-11-12T13:04:31.326Z,56.76
2023-11-12T13:07:00.877Z,56.71
2023-11-12T13:09:32.354Z,56.76
2023-11-12T13:11:59.242Z,56.90
2023-11-12T13:14:26.437Z,57.31
2023-11-12T13:16:54.503Z,57.60
2023-11-12T13:19:24.151Z,57.03
2023-11-12T13:21:57.075Z,57.16
2023-11-12T13:24:29.765Z,57.60
2023-11-12T13:26:58.209Z,57.29
2023-11-12T13:29:27.656Z,57.71
2023-11-12T13:31:57.472Z,57.53
2023-11-12T13:34:24.575Z,57.61
2023-11-12T13:36:51.886Z,57.43
2023-11-12T13:39:18.871Z,57.72
2023-11-12T13:41:48.748Z,57.71
2023-11-12T13:44:15.925Z,57.70
2023-11-12T13:46:43.500Z,58.30
2023-11-12T13:49:10.467Z,58.71
2023-11-12T13:51:41.406Z,59.01
2023-11-12T13:54:11.043Z,59.22
2023-11-12T13:56:39.555Z,59.44
2023-11-12T13:59:06.455Z,59.64
2023-11-12T14:01:33.379Z,59.90
2023-11-12T14:04:01.165Z,59.88
2023-11-12T14:06:28.193Z,60.01
2023-11-12T14:08:55.762Z,60.28
2023-11-12T14:11:22.872Z,60.57
2023-11-12T14:13:51.335Z,60.82
2023-11-12T14:16:23.726Z,60.88
2023-11-12T14:18:50.563Z,60.85
2023-11-12T14:21:18.429Z,60.67
2023-11-12T14:23:45.353Z,60.86
2023-11-12T14:26:13.252Z,60.75
2023-11-12T14:28:41.817Z,60.85
2023-11-12T14:31:11.250Z,60.89
2023-11-12T14:33:40.387Z,61.22
2023-11-12T14:36:10.947Z,61.29
2023-11-12T14:38:37.900Z,61.69
2023-11-12T14:41:05.009Z,61.72
2023-11-12T14:43:38.406Z,62.08
2023-11-12T14:46:06.213Z,61.92
2023-11-12T14:48:34.019Z,61.92
2023-11-12T14:51:05.750Z,61.96
2023-11-12T14:53:32.966Z,62.34
2023-11-12T14:55:59.680Z,62.33
2023-11-12T14:58:26.868Z,62.72
2023-11-12T15:00:55.160Z,62.87
2023-11-12T15:03:23.632Z,62.71
2023-11-12T15:05:50.566Z,62.70
2023-11-12T15:08:17.323Z,62.76
2023-11-12T15:10:44.039Z,62.87
2023-11-12T15:13:10.737Z,63.01
2023-11-12T15:15:38.023Z,63.07
2023-11-12T15:18:07.133Z,63.18
2023-11-12T15:20:35.687Z,63.61
2023-11-12T15:23:02.446Z,63.56
2023-11-12T15:25:29.321Z,63.07
2023-11-12T15:27:56.149Z,63.30
2023-11-12T15:30:25.149Z,63.45
2023-11-12T15:32:52.096Z,63.63
2023-11-12T15:35:19.749Z,64.20
2023-11-12T15:37:46.714Z,64.87
2023-11-12T15:40:17.826Z,65.45
2023-11-12T15:42:45.833Z,66.06
2023-11-12T15:45:16.328Z,66.35
2023-11-12T15:47:47.825Z,66.01
2023-11-12T15:50:15.086Z,66.68
2023-11-12T15:52:42.805Z,66.61
2023-11-12T15:55:13.106Z,66.16
2023-11-12T15:57:41.322Z,65.87
2023-11-12T16:00:13.767Z,65.63
2023-11-12T16:02:41.821Z,65.65
2023-11-12T16:05:10.315Z,65.74
2023-11-12T16:07:37.066Z,65.47
2023-11-12T16:10:05.352Z,65.12
2023-11-12T16:12:33.690Z,65.10
2023-11-12T16:15:05.133Z,64.86
2023-11-12T16:17:32.601Z,64.90
2023-11-12T16:20:00.133Z,64.99
2023-11-12T16:22:26.946Z,64.89
2023-11-12T16:24:53.659Z,65.09
2023-11-12T16:27:22.463Z,64.82
2023-11-12T16:29:49.386Z,65.01
2023-11-12T16:32:20.011Z,64.55
2023-11-12T16:34:46.786Z,64.87
2023-11-12T16:37:13.790Z,65.04
2023-11-12T16:39:45.837Z,65.26
2023-11-12T16:42:15.027Z,65.31
2023-11-12T16:44:42.908Z,65.08
2023-11-12T16:47:11.450Z,64.81
2023-11-12T16:49:38.658Z,64.79
2023-11-12T16:52:05.982Z,65.07
2023-11-12T16:54:34.083Z,64.91
2023-11-12T16:57:05.025Z,64.56
2023-11-12T16:59:31.853Z,65.00
2023-11-12T17:01:58.747Z,65.11
2023-11-12T17:04:27.646Z,65.02
2023-11-12T17:06:55.197Z,65.37
2023-11-12T17:09:22.660Z,65.18
2023-11-12T17:11:49.388Z,65.12
2023-11-12T17:14:16.686Z,65.10
2023-11-12T17:16:46.099Z,65.14
2023-11-12T17:19:14.023Z,65.00
2023-11-12T17:21:41.515Z,64.88
2023-11-12T17:24:11.646Z,64.83
2023-11-12T17:26:38.467Z,64.95
2023-11-12T17:29:05.471Z,64.85
2023-11-12T17:31:33.356Z,65.29
2023-11-12T17:34:00.520Z,65.13
2023-11-12T17:36:28.042Z,65.57
2023-11-12T17:38:55.641Z,65.43
2023-11-12T17:41:26.043Z,65.53
2023-11-12T17:43:53.841Z,65.75
2023-11-12T17:46:22.779Z,65.91
2023-11-12T17:48:51.030Z,65.99
2023-11-12T17:51:19.848Z,65.83
2023-11-12T17:53:47.088Z,66.12
2023-11-12T17:56:14.005Z,65.98
2023-11-12T17:58:40.720Z,66.27
2023-11-12T18:01:09.488Z,66.25
2023-11-12T18:03:37.746Z,66.22
2023-11-12T18:06:07.021Z,66.67
2023-11-12T18:08:34.080Z,66.69
2023-11-12T18:11:01.500Z,67.17
2023-11-12T18:13:30.601Z,67.28
2023-11-12T18:15:58.359Z,67.47
2023-11-12T18:18:28.468Z,67.41
2023-11-12T18:20:55.575Z,67.39
2023-11-12T18:23:28.641Z,67.57
2023-11-12T18:26:01.955Z,67.80
2023-11-12T18:28:29.118Z,67.65
2023-11-12T18:30:56.547Z,67.63
2023-11-12T18:33:23.724Z,67.79
2023-11-12T18:35:50.517Z,68.06
2023-11-12T18:38:18.391Z,68.24
2023-11-12T18:40:47.499Z,68.48
2023-11-12T18:43:16.059Z,68.47
2023-11-12T18:45:42.967Z,68.50
2023-11-12T18:48:10.908Z,68.77
2023-11-12T18:50:38.155Z,68.60
2023-11-12T18:53:05.333Z,68.61
2023-11-12T18:55:32.097Z,69.37
2023-11-12T18:57:59.258Z,69.98
2023-11-12T19:00:26.342Z,69.72
2023-11-12T19:02:56.531Z,69.53
2023-11-12T19:05:23.466Z,69.70
2023-11-12T19:07:50.249Z,70.46
2023-11-12T19:10:23.181Z,70.36
2023-11-12T19:12:50.456Z,70.30
2023-11-12T19:15:17.442Z,71.01
2023-11-12T19:17:45.902Z,70.93
2023-11-12T19:20:14.764Z,70.89
2023-11-12T19:22:42.421Z,71.21
2023-11-12T19:25:11.057Z,70.66
2023-11-12T19:27:39.503Z,70.63
2023-11-12T19:30:14.962Z,70.93
2023-11-12T19:32:44.028Z,71.26
2023-11-12T19:35:12.019Z,70.90
2023-11-12T19:37:39.408Z,71.32
2023-11-12T19:40:08.623Z,71.20
2023-11-12T19:42:35.602Z,71.36
2023-11-12T19:45:05.600Z,71.19
2023-11-12T19:47:32.771Z,71.16
2023-11-12T19:50:01.928Z,71.06
2023-11-12T19:52:28.991Z,71.35
2023-11-12T19:54:55.812Z,71.01
2023-11-12T19:57:22.627Z,71.14
2023-11-12T19:59:49.347Z,71.47
2023-11-12T20:02:20.049Z,71.55
2023-11-12T20:04:46.996Z,71.29
2023-11-12T20:07:14.136Z,71.60
2023-11-12T20:09:40.918Z,71.77
2023-11-12T20:12:08.554Z,71.73
2023-11-12T20:14:37.274Z,71.65
2023-11-12T20:17:04.000Z,71.70
2023-11-12T20:19:31.317Z,71.76
2023-11-12T20:21:58.039Z,71.94
2023-11-12T20:24:26.270Z,72.25
2023-11-12T20:26:54.908Z,72.44
2023-11-12T20:29:21.711Z,72.16
2023-11-12T20:31:54.159Z,72.24
2023-11-12T20:34:21.791Z,72.62
2023-11-12T20:36:50.522Z,72.74
2023-11-12T20:39:17.697Z,72.50
2023-11-12T20:41:46.331Z,72.59
2023-11-12T20:44:14.649Z,72.55
2023-11-12T20:46:45.502Z,72.58
2023-11-12T20:49:17.598Z,72.19
2023-11-12T20:51:46.043Z,72.20
2023-11-12T20:54:14.016Z,72.76
2023-11-12T20:56:41.083Z,73.00
2023-11-12T20:59:12.883Z,72.92
2023-11-12T21:01:39.942Z,73.08
2023-11-12T21:04:11.444Z,72.80
2023-11-12T21:06:41.553Z,72.45
2023-11-12T21:09:09.069Z,72.74
2023-11-12T21:11:39.838Z,72.69
2023-11-12T21:14:10.776Z,72.80
2023-11-12T21:16:38.163Z,73.32
2023-11-12T21:19:06.208Z,73.21
2023-11-12T21:21:33.695Z,73.26
2023-11-12T21:24:05.526Z,73.30
2023-11-12T21:26:33.896Z,72.96
2023-11-12T21:29:00.747Z,72.71
2023-11-12T21:31:27.853Z,72.55
2023-11-12T21:33:54.944Z,72.23
2023-11-12T21:36:21.675Z,72.22
2023-11-12T21:38:48.362Z,71.96
2023-11-12T21:41:15.178Z,72.21
2023-11-12T21:43:42.312Z,72.19
2023-11-12T21:46:10.135Z,72.39
2023-11-12T21:48:40.194Z,72.71
2023-11-12T21:51:07.277Z,73.06
2023-11-12T21:53:36.069Z,73.43
2023-11-12T21:56:04.014Z,73.87
2023-11-12T21:58:31.108Z,74.42
2023-11-12T22:00:58.374Z,74.13
2023-11-12T22:03:26.582Z,74.51
2023-11-12T22:05:54.351Z,74.74
2023-11-12T22:08:22.273Z,74.87
2023-11-12T22:10:49.913Z,75.02
2023-11-12T22:13:18.422Z,74.89
2023-11-12T22:15:45.675Z,75.07
2023-11-12T22:18:12.553Z,74.81
2023-11-12T22:20:40.885Z,74.78
2023-11-12T22:23:08.074Z,74.66
2023-11-12T22:25:34.995Z,74.83
2023-11-12T22:28:01.734Z,74.90
2023-11-12T22:30:28.483Z,74.91
2023-11-12T22:32:56.394Z,74.71
2023-11-12T22:35:23.209Z,74.94
2023-11-12T22:37:50.196Z,75.60
2023-11-12T22:40:20.334Z,75.78
2023-11-12T22:42:47.277Z,76.05
2023-11-12T22:45:14.121Z,75.84
2023-11-12T22:47:42.260Z,75.64
2023-11-12T22:50:12.870Z,75.89
2023-11-12T22:52:39.738Z,76.23
2023-11-12T22:55:06.807Z,76.72
2023-11-12T22:57:35.271Z,76.95
2023-11-12T23:00:06.399Z,76.83
2023-11-12T23:02:33.319Z,76.41
2023-11-12T23:05:00.656Z,76.23
2023-11-12T23:07:27.816Z,76.72
2023-11-12T23:10:07.445Z,77.34
2023-11-12T23:12:34.605Z,77.75
2023-11-12T23:15:01.737Z,77.95
2023-11-12T23:17:28.415Z,77.72
2023-11-12T23:19:55.111Z,77.83
2023-11-12T23:22:22.404Z,77.79
2023-11-12T23:24:49.237Z,78.61
2023-11-12T23:27:16.504Z,78.75
2023-11-12T23:29:48.930Z,78.55
2023-11-12T23:32:15.959Z,78.68
2023-11-12T23:34:43.400Z,78.76
2023-11-12T23:37:10.709Z,78.76
2023-11-12T23:39:37.836Z,78.70
2023-11-12T23:42:05.193Z,78.74
2023-11-12T23:44:31.928Z,78.75
2023-11-12T23:46:58.717Z,78.83
2023-11-12T23:49:25.475Z,79.25
2023-11-12T23:51:52.336Z,78.79
2023-11-12T23:54:19.070Z,78.90
2023-11-12T23:56:48.355Z,78.90
2023-11-12T23:59:15.278Z,78.97
